Time;durP1;ratioP1;P1;durP2;ratioP2;P2;SDS_P1;SDS_P2;PMS_P1;PMS_P2;Temp;Humidity;BMP_temperature;BMP_pressure;BME280_temperature;BME280_humidity;BME280_pressure;Samples;Min_cycle;Max_cycle;Signal;HPM_P1;HPM_P2
2021/12/01 00:02:08;;;;;;;2.30;0.90;;;;;;;;;;4930814;29;21003;-78
2021/12/01 00:04:36;;;;;;;0.90;0.70;;;;;;;;;;4932359;29;20466;-77
2021/12/01 00:07:07;;;;;;;1.30;0.90;;;;;;;;;;4933539;29;20490;-78
2021/12/01 00:09:34;;;;;;;2.30;0.83;;;;;;;;;;4935413;29;20756;-76
2021/12/01 00:12:02;;;;;;;1.03;0.70;;;;;;;;;;4933684;29;20507;-78
2021/12/01 00:14:29;;;;;;;0.90;0.73;;;;;;;;;;4935453;29;20555;-78
2021/12/01 00:16:56;;;;;;;2.30;0.90;;;;;;;;;;4940436;28;20466;-77
2021/12/01 00:19:24;;;;;;;1.80;1.10;;;;;;;;;;4936519;29;21075;-77
2021/12/01 00:21:51;;;;;;;0.80;0.70;;;;;;;;;;4932041;29;20553;-79
2021/12/01 00:24:19;;;;;;;1.10;1.00;;;;;;;;;;4933235;29;20482;-79
2021/12/01 00:26:47;;;;;;;1.47;0.80;;;;;;;;;;4932373;29;20473;-79
2021/12/01 00:29:14;;;;;;;0.77;0.70;;;;;;;;;;4933651;29;20850;-78
2021/12/01 00:31:42;;;;;;;1.27;0.90;;;;;;;;;;4937577;28;20548;-79
2021/12/01 00:34:10;;;;;;;0.90;0.80;;;;;;;;;;4938981;28;20453;-78
2021/12/01 00:36:37;;;;;;;1.73;1.00;;;;;;;;;;4933292;29;21006;-77
2021/12/01 00:39:04;;;;;;;0.90;0.80;;;;;;;;;;4933232;29;20450;-78
2021/12/01 00:41:33;;;;;;;1.23;0.93;;;;;;;;;;4933396;29;20545;-78
2021/12/01 00:44:01;;;;;;;0.90;0.80;;;;;;;;;;4932999;29;20450;-78
2021/12/01 00:46:38;;;;;;;0.80;0.80;;;;;;;;;;4922292;29;20459;-77
2021/12/01 00:49:06;;;;;;;1.10;0.90;;;;;;;;;;4937196;28;20476;-78
2021/12/01 00:51:43;;;;;;;;;;;;;;;;;;;;;
2021/12/01 00:54:17;;;;;;;2.60;0.90;;;;;;;;;;4954524;28;20842;-78
2021/12/01 00:56:45;;;;;;;1.23;0.90;;;;;;;;;;4948874;28;20654;-77
2021/12/01 00:59:13;;;;;;;1.00;0.80;;;;;;;;;;4936826;29;21018;-79
2021/12/01 01:01:43;;;;;;;1.10;1.00;;;;;;;;;;4931608;29;20470;-78
2021/12/01 01:04:10;;;;;;;1.00;0.90;;;;;;;;;;4936650;29;20619;-78
2021/12/01 01:06:38;;;;;;;1.10;0.97;;;;;;;;;;4938514;28;20483;-78
2021/12/01 01:09:06;;;;;;;1.00;0.90;;;;;;;;;;4934076;29;20446;-77
2021/12/01 01:16:58;;;;;;;2.20;1.00;;;;;;;;;;4931812;29;20450;-77
2021/12/01 01:19:26;;;;;;;1.33;1.10;;;;;;;;;;4930927;29;20467;-78
2021/12/01 01:21:55;;;;;;;1.80;1.33;;;;;;;;;;4939691;29;20824;-76
2021/12/01 01:24:22;;;;;;;5.93;1.60;;;;;;;;;;4942707;28;20541;-76
2021/12/01 01:26:50;;;;;;;2.50;1.67;;;;;;;;;;4951581;28;20493;-78
2021/12/01 01:29:21;;;;;;;2.73;1.60;;;;;;;;;;4951105;28;20480;-78
2021/12/01 01:31:50;;;;;;;3.43;1.50;;;;;;;;;;4950183;28;20544;-78
2021/12/01 01:34:17;;;;;;;2.70;1.60;;;;;;;;;;4944225;28;20494;-79
2021/12/01 01:36:45;;;;;;;2.50;1.90;;;;;;;;;;4939715;28;20462;-79
2021/12/01 01:39:12;;;;;;;2.00;1.53;;;;;;;;;;4938396;28;20455;-76
2021/12/01 01:41:39;;;;;;;1.50;1.30;;;;;;;;;;4933928;29;20454;-77
2021/12/01 01:44:07;;;;;;;1.33;1.10;;;;;;;;;;4932394;29;20450;-79
2021/12/01 01:46:36;;;;;;;1.20;1.00;;;;;;;;;;4936044;29;20947;-76
2021/12/01 01:49:09;;;;;;;1.67;1.20;;;;;;;;;;4934553;29;20452;-78
2021/12/01 01:51:37;;;;;;;1.33;1.20;;;;;;;;;;4942184;29;20545;-77
2021/12/01 01:54:04;;;;;;;4.93;1.43;;;;;;;;;;4955562;28;20494;-76
2021/12/01 01:56:31;;;;;;;1.53;1.07;;;;;;;;;;4933228;29;20831;-77
2021/12/01 01:58:59;;;;;;;1.10;1.00;;;;;;;;;;4934316;29;20474;-77
2021/12/01 02:01:44;;;;;;;1.60;1.10;;;;;;;;;;4934779;29;20456;-78
2021/12/01 02:04:12;;;;;;;1.57;1.20;;;;;;;;;;4933353;29;20465;-78
2021/12/01 02:06:40;;;;;;;2.10;1.20;;;;;;;;;;4936859;29;20510;-79
2021/12/01 02:09:07;;;;;;;2.53;1.50;;;;;;;;;;4942346;29;20573;-80
2021/12/01 02:11:35;;;;;;;1.57;1.30;;;;;;;;;;4944970;28;20468;-77
2021/12/01 02:14:02;;;;;;;1.90;1.40;;;;;;;;;;4952733;28;20499;-76
2021/12/01 02:16:29;;;;;;;2.13;1.60;;;;;;;;;;4954752;28;20769;-77
2021/12/01 02:18:57;;;;;;;3.00;1.27;;;;;;;;;;4954110;28;20433;-77
2021/12/01 02:21:27;;;;;;;1.90;1.30;;;;;;;;;;4950206;28;20820;-78
2021/12/01 02:23:56;;;;;;;1.90;1.60;;;;;;;;;;4939482;29;20446;-77
2021/12/01 02:26:24;;;;;;;1.27;1.17;;;;;;;;;;4941226;28;20516;-77
2021/12/01 02:28:52;;;;;;;1.40;1.30;;;;;;;;;;4952100;28;20454;-76
2021/12/01 02:31:19;;;;;;;2.13;1.70;;;;;;;;;;4968845;28;20437;-77
2021/12/01 02:33:46;;;;;;;1.67;1.43;;;;;;;;;;4954399;28;20481;-78
2021/12/01 02:36:14;;;;;;;1.47;1.37;;;;;;;;;;4940806;28;20848;-77
2021/12/01 02:38:44;;;;;;;1.60;1.30;;;;;;;;;;4936609;29;20946;-77
2021/12/01 02:41:18;;;;;;;1.83;1.70;;;;;;;;;;4943557;29;20442;-78
2021/12/01 02:43:47;;;;;;;1.33;1.23;;;;;;;;;;4959143;28;20966;-76
2021/12/01 02:46:14;;;;;;;1.70;1.47;;;;;;;;;;4947235;29;20944;-77
2021/12/01 02:48:42;;;;;;;2.03;1.73;;;;;;;;;;4935096;29;20443;-77
2021/12/01 02:51:10;;;;;;;1.97;1.50;;;;;;;;;;4933553;29;20917;-78
2021/12/01 02:53:37;;;;;;;2.10;1.90;;;;;;;;;;4934790;29;20569;-77
2021/12/01 02:56:10;;;;;;;1.63;1.40;;;;;;;;;;4935294;29;20467;-78
2021/12/01 02:58:40;;;;;;;2.30;1.87;;;;;;;;;;4936957;29;20545;-76
2021/12/01 03:01:10;;;;;;;2.20;2.00;;;;;;;;;;4938306;28;20466;-77
2021/12/01 03:03:38;;;;;;;3.67;2.00;;;;;;;;;;4939237;28;20462;-78
2021/12/01 03:06:05;;;;;;;2.20;2.00;;;;;;;;;;4932798;29;20490;-78
2021/12/01 03:08:32;;;;;;;2.30;2.10;;;;;;;;;;4932676;29;21038;-78
2021/12/01 03:10:59;;;;;;;2.37;2.17;;;;;;;;;;4933188;29;20831;-77
2021/12/01 03:13:28;;;;;;;2.93;2.40;;;;;;;;;;4934640;29;20482;-76
2021/12/01 03:15:56;;;;;;;2.90;1.90;;;;;;;;;;4935641;29;20467;-77
2021/12/01 03:18:23;;;;;;;3.07;2.77;;;;;;;;;;4940317;28;20964;-76
2021/12/01 03:20:51;;;;;;;2.70;2.50;;;;;;;;;;4937674;29;20446;-76
2021/12/01 03:23:19;;;;;;;2.80;2.50;;;;;;;;;;4949235;29;20559;-77
2021/12/01 03:25:46;;;;;;;3.13;2.40;;;;;;;;;;4940149;28;20781;-76
2021/12/01 03:28:13;;;;;;;2.90;2.60;;;;;;;;;;4914942;29;20824;-77
2021/12/01 03:30:43;;;;;;;3.50;2.70;;;;;;;;;;4921639;28;20469;-75
2021/12/01 03:33:11;;;;;;;3.53;2.60;;;;;;;;;;4955906;28;20481;-76
2021/12/01 03:35:39;;;;;;;2.70;2.50;;;;;;;;;;4944349;28;20438;-76
2021/12/01 03:38:07;;;;;;;3.87;3.07;;;;;;;;;;4967522;28;20480;-76
2021/12/01 03:40:37;;;;;;;2.90;2.50;;;;;;;;;;4935124;29;20870;-77
2021/12/01 03:43:13;;;;;;;4.00;3.00;;;;;;;;;;4935169;29;20446;-77
2021/12/01 03:45:40;;;;;;;2.50;2.30;;;;;;;;;;4933597;29;20962;-75
2021/12/01 03:48:09;;;;;;;2.33;2.10;;;;;;;;;;4934521;29;20829;-76
2021/12/01 03:50:36;;;;;;;2.90;2.43;;;;;;;;;;4935732;29;20450;-77
2021/12/01 03:53:04;;;;;;;2.90;2.47;;;;;;;;;;4935156;29;20450;-76
2021/12/01 03:55:31;;;;;;;3.33;2.77;;;;;;;;;;4941037;29;20450;-76
2021/12/01 03:57:58;;;;;;;3.13;2.83;;;;;;;;;;4943723;28;20468;-75
2021/12/01 04:00:25;;;;;;;3.53;2.90;;;;;;;;;;4938239;29;20960;-76
2021/12/01 04:02:53;;;;;;;3.23;2.77;;;;;;;;;;4931854;29;20462;-76
2021/12/01 04:05:21;;;;;;;3.97;3.03;;;;;;;;;;4933987;29;20450;-77
2021/12/01 04:07:48;;;;;;;4.03;3.23;;;;;;;;;;4932297;29;20493;-77
2021/12/01 04:10:17;;;;;;;4.90;3.70;;;;;;;;;;4935659;29;20447;-76
2021/12/01 04:12:45;;;;;;;6.43;4.23;;;;;;;;;;4934330;29;20473;-77
2021/12/01 04:15:13;;;;;;;4.50;3.70;;;;;;;;;;4935781;29;20522;-76
2021/12/01 04:17:41;;;;;;;3.80;3.03;;;;;;;;;;4939640;28;20465;-76
2021/12/01 04:20:09;;;;;;;4.70;3.70;;;;;;;;;;4943996;28;20814;-76
2021/12/01 04:22:38;;;;;;;3.60;3.30;;;;;;;;;;4952523;28;20464;-77
2021/12/01 04:25:06;;;;;;;6.07;4.00;;;;;;;;;;4952611;28;20445;-75
2021/12/01 04:27:33;;;;;;;4.53;3.67;;;;;;;;;;4936930;29;20582;-78
2021/12/01 04:30:00;;;;;;;5.40;4.33;;;;;;;;;;4929737;29;20475;-78
2021/12/01 04:32:28;;;;;;;4.47;3.70;;;;;;;;;;4926075;29;20945;-76
2021/12/01 04:34:56;;;;;;;4.03;3.63;;;;;;;;;;4940753;29;20571;-77
2021/12/01 04:37:24;;;;;;;5.93;4.10;;;;;;;;;;4938715;29;20895;-76
2021/12/01 04:39:53;;;;;;;5.57;4.20;;;;;;;;;;4932004;29;20467;-77
2021/12/01 04:42:20;;;;;;;5.37;4.33;;;;;;;;;;4931816;29;20458;-76
2021/12/01 04:44:47;;;;;;;4.70;3.80;;;;;;;;;;4932800;29;20469;-76
2021/12/01 04:47:18;;;;;;;5.90;4.37;;;;;;;;;;4930926;29;20565;-77
2021/12/01 04:49:45;;;;;;;6.53;4.70;;;;;;;;;;4934231;29;20545;-78
2021/12/01 04:52:13;;;;;;;5.33;4.00;;;;;;;;;;4935424;29;20925;-77
2021/12/01 04:54:40;;;;;;;5.90;4.13;;;;;;;;;;4934701;29;20479;-76
2021/12/01 04:57:09;;;;;;;4.30;3.90;;;;;;;;;;4939184;29;20518;-76
2021/12/01 04:59:37;;;;;;;4.50;4.10;;;;;;;;;;4943265;29;20489;-77
2021/12/01 05:02:05;;;;;;;4.50;3.70;;;;;;;;;;4965877;28;20450;-75
2021/12/01 05:04:33;;;;;;;5.00;3.93;;;;;;;;;;4966803;28;20446;-77
2021/12/01 05:07:00;;;;;;;4.00;3.40;;;;;;;;;;4935438;29;20740;-77
2021/12/01 05:09:27;;;;;;;3.60;2.90;;;;;;;;;;4931881;29;20892;-77
2021/12/01 05:11:55;;;;;;;5.00;3.60;;;;;;;;;;4933562;29;20466;-76
2021/12/01 05:14:25;;;;;;;4.13;3.40;;;;;;;;;;4934627;29;20494;-77
2021/12/01 05:16:53;;;;;;;4.00;3.60;;;;;;;;;;4934416;29;20850;-77
2021/12/01 05:19:20;;;;;;;4.80;3.60;;;;;;;;;;4940092;29;20442;-77
2021/12/01 05:21:47;;;;;;;3.60;3.00;;;;;;;;;;4939961;29;20931;-77
2021/12/01 05:24:14;;;;;;;3.40;3.10;;;;;;;;;;4936869;29;20541;-76
2021/12/01 05:26:42;;;;;;;3.30;2.87;;;;;;;;;;4935423;29;20501;-76
2021/12/01 05:29:09;;;;;;;2.60;2.40;;;;;;;;;;4936554;29;20457;-76
2021/12/01 05:31:37;;;;;;;2.80;2.50;;;;;;;;;;4935079;29;20466;-77
2021/12/01 05:34:05;;;;;;;2.83;2.60;;;;;;;;;;4938017;29;20486;-76
2021/12/01 05:36:32;;;;;;;2.60;2.37;;;;;;;;;;4936818;29;20450;-76
2021/12/01 05:38:59;;;;;;;2.83;2.40;;;;;;;;;;4939590;29;20458;-76
2021/12/01 05:41:26;;;;;;;2.37;2.17;;;;;;;;;;4942251;28;20837;-77
2021/12/01 05:43:54;;;;;;;2.70;2.37;;;;;;;;;;4937361;29;20960;-77
2021/12/01 05:46:21;;;;;;;3.93;2.20;;;;;;;;;;4935508;29;20445;-77
2021/12/01 05:48:51;;;;;;;2.37;2.10;;;;;;;;;;4935637;29;20457;-76
2021/12/01 05:51:19;;;;;;;2.73;2.20;;;;;;;;;;4935505;29;20450;-75
2021/12/01 05:53:46;;;;;;;3.33;2.00;;;;;;;;;;4936492;29;20853;-77
2021/12/01 05:56:13;;;;;;;2.73;2.40;;;;;;;;;;4939673;28;20476;-76
2021/12/01 05:58:41;;;;;;;2.40;1.97;;;;;;;;;;4944043;28;20598;-77
2021/12/01 06:01:08;;;;;;;2.67;2.10;;;;;;;;;;4954756;28;20454;-77
2021/12/01 06:03:35;;;;;;;2.80;2.07;;;;;;;;;;4948697;28;20471;-75
2021/12/01 06:06:04;;;;;;;2.10;1.90;;;;;;;;;;4935317;29;20469;-77
2021/12/01 06:08:31;;;;;;;2.60;1.70;;;;;;;;;;4932108;29;20482;-76
2021/12/01 06:10:58;;;;;;;4.38;2.30;;;;;;;;;;4938151;28;20466;-75
2021/12/01 06:13:26;;;;;;;2.50;2.30;;;;;;;;;;4940861;28;20198;-76
2021/12/01 06:15:53;;;;;;;2.27;1.67;;;;;;;;;;4936785;28;20815;-75
2021/12/01 06:18:20;;;;;;;3.05;1.90;;;;;;;;;;4931470;29;20493;-75
2021/12/01 06:20:48;;;;;;;2.50;1.77;;;;;;;;;;4935606;29;20206;-77
2021/12/01 06:23:16;;;;;;;3.63;2.10;;;;;;;;;;4934057;29;20839;-76
2021/12/01 06:25:44;;;;;;;2.90;1.60;;;;;;;;;;4937248;29;20455;-75
2021/12/01 06:28:11;;;;;;;1.67;1.57;;;;;;;;;;4942422;28;20466;-76
2021/12/01 06:30:39;;;;;;;2.10;1.90;;;;;;;;;;4935834;29;20797;-75
2021/12/01 06:33:07;;;;;;;2.07;1.87;;;;;;;;;;4947060;28;20242;-77
2021/12/01 06:35:34;;;;;;;2.60;1.73;;;;;;;;;;4932414;29;20482;-76
2021/12/01 06:38:02;;;;;;;1.93;1.47;;;;;;;;;;4935382;29;20478;-77
2021/12/01 06:40:31;;;;;;;3.80;1.83;;;;;;;;;;4934555;29;20477;-76
2021/12/01 06:42:58;;;;;;;2.30;1.50;;;;;;;;;;4936639;29;20470;-77
2021/12/01 06:45:25;;;;;;;1.50;1.30;;;;;;;;;;4941115;29;20458;-76
2021/12/01 06:47:53;;;;;;;1.70;1.27;;;;;;;;;;4936591;28;20520;-77
2021/12/01 06:50:20;;;;;;;1.80;1.30;;;;;;;;;;4934883;29;20442;-76
2021/12/01 06:52:47;;;;;;;1.73;1.40;;;;;;;;;;4933760;29;20928;-77
2021/12/01 06:55:14;;;;;;;1.73;1.50;;;;;;;;;;4933764;29;20501;-78
2021/12/01 06:57:43;;;;;;;1.73;1.40;;;;;;;;;;4934400;29;20490;-76
2021/12/01 07:00:12;;;;;;;1.60;1.50;;;;;;;;;;4936555;29;21004;-74
2021/12/01 07:02:40;;;;;;;3.93;1.60;;;;;;;;;;4934444;29;20938;-78
2021/12/01 07:05:08;;;;;;;1.50;1.40;;;;;;;;;;4936887;29;20466;-76
2021/12/01 07:07:35;;;;;;;1.60;1.40;;;;;;;;;;4942257;28;20466;-76
2021/12/01 07:10:03;;;;;;;1.50;1.40;;;;;;;;;;4948524;28;20958;-76
2021/12/01 07:12:30;;;;;;;1.23;1.10;;;;;;;;;;4948152;28;20467;-76
2021/12/01 07:14:59;;;;;;;1.30;1.20;;;;;;;;;;4916322;29;20573;-77
2021/12/01 07:17:26;;;;;;;1.23;1.10;;;;;;;;;;4926690;29;20490;-77
2021/12/01 07:19:53;;;;;;;1.00;0.90;;;;;;;;;;4938746;29;20827;-77
2021/12/01 07:22:20;;;;;;;1.60;1.10;;;;;;;;;;4941914;29;20450;-75
2021/12/01 07:24:48;;;;;;;1.50;1.40;;;;;;;;;;4938036;29;20453;-77
2021/12/01 07:27:15;;;;;;;3.47;1.10;;;;;;;;;;4938707;29;20815;-76
2021/12/01 07:29:43;;;;;;;0.90;0.80;;;;;;;;;;4944160;29;20456;-76
2021/12/01 07:32:12;;;;;;;1.00;0.90;;;;;;;;;;4942265;28;20988;-77
2021/12/01 07:34:42;;;;;;;1.10;0.90;;;;;;;;;;4914260;29;20852;-76
2021/12/01 07:37:09;;;;;;;1.07;0.97;;;;;;;;;;4915037;29;20471;-77
2021/12/01 07:39:37;;;;;;;1.30;1.10;;;;;;;;;;4914704;29;20462;-81
2021/12/01 07:42:04;;;;;;;2.40;1.10;;;;;;;;;;4930485;29;20489;-78
2021/12/01 07:44:31;;;;;;;1.00;0.90;;;;;;;;;;4935794;29;20449;-75
2021/12/01 07:46:58;;;;;;;1.60;1.10;;;;;;;;;;4935496;29;20481;-76
2021/12/01 07:49:27;;;;;;;2.13;1.30;;;;;;;;;;4940352;28;20457;-76
2021/12/01 07:51:55;;;;;;;1.30;0.90;;;;;;;;;;4934928;28;20557;-76
2021/12/01 07:54:22;;;;;;;3.00;1.00;;;;;;;;;;4933549;29;20446;-77
2021/12/01 07:56:49;;;;;;;1.23;1.13;;;;;;;;;;4932433;29;20486;-77
2021/12/01 07:59:16;;;;;;;1.20;1.00;;;;;;;;;;4932043;29;20486;-80
2021/12/01 08:01:44;;;;;;;2.30;1.00;;;;;;;;;;4928601;29;20814;-77
2021/12/01 08:04:11;;;;;;;1.20;1.00;;;;;;;;;;4930370;29;20848;-77
2021/12/01 08:06:43;;;;;;;1.03;0.93;;;;;;;;;;4936263;28;20505;-76
2021/12/01 08:09:10;;;;;;;1.10;0.80;;;;;;;;;;4943065;28;21014;-78
2021/12/01 08:11:38;;;;;;;1.10;0.90;;;;;;;;;;4930324;29;20469;-79
2021/12/01 08:14:06;;;;;;;1.00;0.80;;;;;;;;;;4933867;29;20451;-77
2021/12/01 08:16:33;;;;;;;2.20;1.07;;;;;;;;;;4933007;29;20844;-81
2021/12/01 08:19:01;;;;;;;2.57;1.20;;;;;;;;;;4937554;28;21113;-81
2021/12/01 08:21:28;;;;;;;2.03;1.03;;;;;;;;;;4939606;29;20457;-80
2021/12/01 08:23:57;;;;;;;1.47;1.10;;;;;;;;;;4951473;28;20460;-75
2021/12/01 08:26:24;;;;;;;2.17;1.40;;;;;;;;;;4931505;29;20555;-81
2021/12/01 08:28:52;;;;;;;1.73;1.20;;;;;;;;;;4933760;29;20453;-81
2021/12/01 08:31:20;;;;;;;3.83;1.40;;;;;;;;;;4933830;29;20450;-79
2021/12/01 08:33:47;;;;;;;1.20;0.90;;;;;;;;;;4934806;28;20560;-81
2021/12/01 08:36:15;;;;;;;2.27;1.00;;;;;;;;;;4940796;29;20849;-81
2021/12/01 08:38:43;;;;;;;2.00;1.20;;;;;;;;;;4938912;29;20456;-84
2021/12/01 08:41:11;;;;;;;1.40;1.00;;;;;;;;;;4931763;29;20455;-84
2021/12/01 08:43:39;;;;;;;2.00;1.23;;;;;;;;;;4926368;29;20474;-81
2021/12/01 08:46:07;;;;;;;2.13;1.17;;;;;;;;;;4933159;29;20442;-81
2021/12/01 08:48:34;;;;;;;1.23;1.00;;;;;;;;;;4932676;29;20584;-81
2021/12/01 08:51:03;;;;;;;1.00;0.90;;;;;;;;;;4940653;29;20446;-85
2021/12/01 08:53:30;;;;;;;1.37;1.10;;;;;;;;;;4941488;28;20535;-83
2021/12/01 08:55:58;;;;;;;1.63;1.30;;;;;;;;;;4954807;28;20485;-84
2021/12/01 08:58:27;;;;;;;2.87;1.00;;;;;;;;;;4954568;28;20558;-80
2021/12/01 09:00:55;;;;;;;1.60;1.00;;;;;;;;;;4939696;29;20438;-77
2021/12/01 09:03:23;;;;;;;1.13;1.03;;;;;;;;;;4937464;29;20537;-77
2021/12/01 09:05:51;;;;;;;1.17;1.07;;;;;;;;;;4940033;29;20963;-78
2021/12/01 09:08:20;;;;;;;1.20;0.93;;;;;;;;;;4935220;29;20486;-81
2021/12/01 09:10:48;;;;;;;1.30;1.03;;;;;;;;;;4936803;28;20546;-80
2021/12/01 09:13:15;;;;;;;1.20;0.90;;;;;;;;;;4958200;28;20818;-84
2021/12/01 09:15:44;;;;;;;1.70;0.80;;;;;;;;;;4944836;28;20564;-85
2021/12/01 09:18:11;;;;;;;1.30;0.80;;;;;;;;;;4946601;28;20974;-79
2021/12/01 09:20:38;;;;;;;1.27;0.93;;;;;;;;;;4934569;29;20829;-78
2021/12/01 09:23:06;;;;;;;1.50;1.00;;;;;;;;;;4936449;29;20963;-79
2021/12/01 09:25:34;;;;;;;1.67;1.10;;;;;;;;;;4936397;29;20474;-83
2021/12/01 09:28:02;;;;;;;1.20;1.00;;;;;;;;;;4935726;29;20584;-81
2021/12/01 09:30:29;;;;;;;1.20;0.87;;;;;;;;;;4937202;29;20467;-76
2021/12/01 09:32:58;;;;;;;1.40;1.10;;;;;;;;;;4938378;29;20457;-78
2021/12/01 09:35:25;;;;;;;1.33;1.10;;;;;;;;;;4942665;28;21010;-77
2021/12/01 09:37:52;;;;;;;1.30;1.00;;;;;;;;;;4943097;28;20477;-77
2021/12/01 09:40:20;;;;;;;1.40;1.20;;;;;;;;;;4948805;28;20549;-76
2021/12/01 09:42:49;;;;;;;1.20;0.90;;;;;;;;;;4934391;29;20978;-79
2021/12/01 09:45:17;;;;;;;1.70;1.13;;;;;;;;;;4934228;29;20443;-80
2021/12/01 09:47:44;;;;;;;1.53;1.13;;;;;;;;;;4935187;29;20482;-78
2021/12/01 09:50:13;;;;;;;1.53;1.20;;;;;;;;;;4940393;29;20935;-81
2021/12/01 09:52:40;;;;;;;1.40;1.10;;;;;;;;;;4942519;28;20446;-82
2021/12/01 09:55:08;;;;;;;1.73;1.00;;;;;;;;;;4937600;29;20517;-81
2021/12/01 09:57:36;;;;;;;1.00;0.90;;;;;;;;;;4935285;29;20470;-79
2021/12/01 10:00:04;;;;;;;1.10;0.90;;;;;;;;;;4933515;29;21034;-79
2021/12/01 10:02:31;;;;;;;1.10;1.00;;;;;;;;;;4933751;29;20484;-84
2021/12/01 10:04:58;;;;;;;1.07;0.90;;;;;;;;;;4932984;29;20466;-80
2021/12/01 10:07:32;;;;;;;1.53;1.00;;;;;;;;;;4936728;29;20531;-78
2021/12/01 10:10:05;;;;;;;1.37;1.00;;;;;;;;;;4936561;29;20536;-78
2021/12/01 10:12:44;;;;;;;1.50;1.10;;;;;;;;;;4938447;28;20458;-76
2021/12/01 10:15:11;;;;;;;1.67;0.80;;;;;;;;;;4957262;28;20473;-82
2021/12/01 10:17:38;;;;;;;1.10;0.80;;;;;;;;;;4953270;28;20997;-81
2021/12/01 10:20:14;;;;;;;0.90;0.80;;;;;;;;;;4953789;28;20456;-79
2021/12/01 10:23:02;;;;;;;0.97;0.80;;;;;;;;;;4954959;28;20445;-76
2021/12/01 10:25:30;;;;;;;1.20;0.93;;;;;;;;;;4966660;28;20481;-81
2021/12/01 10:27:57;;;;;;;2.13;0.90;;;;;;;;;;4933441;29;20477;-78
2021/12/01 10:30:39;;;;;;;1.40;1.20;;;;;;;;;;4936724;29;20465;-81
2021/12/01 10:33:08;;;;;;;1.10;0.90;;;;;;;;;;4935197;29;20466;-81
2021/12/01 10:35:36;;;;;;;1.03;0.80;;;;;;;;;;4940868;28;21231;-76
2021/12/01 10:38:06;;;;;;;1.20;0.90;;;;;;;;;;4939658;29;20482;-76
2021/12/01 10:40:34;;;;;;;1.87;1.40;;;;;;;;;;4934449;29;20941;-80
2021/12/01 10:43:03;;;;;;;1.83;1.10;;;;;;;;;;4934611;29;20450;-79
2021/12/01 10:45:31;;;;;;;1.30;1.00;;;;;;;;;;4933832;29;20929;-78
2021/12/01 10:47:59;;;;;;;4.40;1.50;;;;;;;;;;4935077;29;20501;-76
2021/12/01 10:50:27;;;;;;;1.87;1.47;;;;;;;;;;4940915;29;20456;-75
2021/12/01 10:52:56;;;;;;;2.80;1.40;;;;;;;;;;4945425;29;20437;-79
2021/12/01 10:55:26;;;;;;;3.07;1.20;;;;;;;;;;4967947;28;20497;-75
2021/12/01 10:57:55;;;;;;;3.13;1.00;;;;;;;;;;4934248;28;20542;-77
2021/12/01 11:00:24;;;;;;;1.50;1.00;;;;;;;;;;4915855;29;20534;-77
2021/12/01 11:02:52;;;;;;;1.50;1.37;;;;;;;;;;4933988;29;20814;-78
2021/12/01 11:05:28;;;;;;;6.83;1.67;;;;;;;;;;4940899;28;20486;-76
2021/12/01 11:07:55;;;;;;;1.50;1.30;;;;;;;;;;4958103;28;20465;-79
2021/12/01 11:10:24;;;;;;;1.50;1.10;;;;;;;;;;4933860;28;20462;-77
2021/12/01 11:12:56;;;;;;;2.00;1.50;;;;;;;;;;4933781;29;20465;-77
2021/12/01 11:15:25;;;;;;;1.53;1.30;;;;;;;;;;4930448;29;20462;-79
2021/12/01 11:17:54;;;;;;;1.90;1.27;;;;;;;;;;4931891;29;20976;-79
2021/12/01 11:20:36;;;;;;;2.33;1.20;;;;;;;;;;4940416;28;20520;-77
2021/12/01 11:23:18;;;;;;;2.80;1.40;;;;;;;;;;4951064;28;20951;-76
2021/12/01 11:25:46;;;;;;;3.03;1.50;;;;;;;;;;4947019;28;20974;-76
2021/12/01 11:28:16;;;;;;;1.37;1.20;;;;;;;;;;4933562;29;20482;-78
2021/12/01 11:30:44;;;;;;;1.47;1.13;;;;;;;;;;4934380;29;20545;-77
2021/12/01 11:33:13;;;;;;;3.43;1.10;;;;;;;;;;4933395;29;20541;-79
2021/12/01 11:35:41;;;;;;;2.33;1.27;;;;;;;;;;4938771;29;20493;-76
2021/12/01 11:38:09;;;;;;;2.30;1.23;;;;;;;;;;4953419;28;20473;-78
2021/12/01 11:40:37;;;;;;;2.30;1.30;;;;;;;;;;4933168;28;20458;-80
2021/12/01 11:43:05;;;;;;;1.67;1.00;;;;;;;;;;4934013;29;20932;-77
2021/12/01 11:45:34;;;;;;;1.50;1.00;;;;;;;;;;4932599;29;20462;-84
2021/12/01 11:48:02;;;;;;;1.10;0.90;;;;;;;;;;4934328;29;20470;-79
2021/12/01 11:50:32;;;;;;;1.30;1.00;;;;;;;;;;4920219;29;20487;-77
2021/12/01 11:53:08;;;;;;;1.23;1.00;;;;;;;;;;4956395;28;20437;-80
2021/12/01 11:55:48;;;;;;;1.77;1.10;;;;;;;;;;4960166;28;20445;-76
2021/12/01 11:58:30;;;;;;;0.93;0.73;;;;;;;;;;4964414;28;20481;-86
2021/12/01 12:00:59;;;;;;;1.00;0.87;;;;;;;;;;4933015;29;20449;-84
2021/12/01 12:03:27;;;;;;;2.23;0.93;;;;;;;;;;4933816;29;20443;-84
2021/12/01 12:06:09;;;;;;;1.10;0.80;;;;;;;;;;4933375;29;20480;-79
2021/12/01 12:08:51;;;;;;;0.90;0.80;;;;;;;;;;4934363;29;20467;-83
2021/12/01 12:11:33;;;;;;;1.53;0.80;;;;;;;;;;4935512;29;20451;-79
2021/12/01 12:14:01;;;;;;;1.37;0.80;;;;;;;;;;4935388;28;20474;-76
2021/12/01 12:16:29;;;;;;;1.13;1.03;;;;;;;;;;4939805;28;20485;-78
2021/12/01 12:18:58;;;;;;;1.70;1.00;;;;;;;;;;4949229;28;20445;-79
2021/12/01 12:21:32;;;;;;;1.40;1.23;;;;;;;;;;4953060;28;20454;-79
2021/12/01 12:24:04;;;;;;;1.43;1.17;;;;;;;;;;4951551;28;20453;-79
2021/12/01 12:26:34;;;;;;;4.17;1.50;;;;;;;;;;4942939;29;20469;-80
2021/12/01 12:29:03;;;;;;;2.07;1.43;;;;;;;;;;4934072;29;20471;-76
2021/12/01 12:31:32;;;;;;;2.40;2.00;;;;;;;;;;4934584;29;20450;-77
2021/12/01 12:34:01;;;;;;;3.23;1.60;;;;;;;;;;4933639;29;20476;-78
2021/12/01 12:36:37;;;;;;;4.50;2.87;;;;;;;;;;4937667;28;20482;-78
2021/12/01 12:39:05;;;;;;;2.60;1.70;;;;;;;;;;4940410;29;20441;-78
2021/12/01 12:41:33;;;;;;;3.90;2.50;;;;;;;;;;4964021;28;20454;-76
2021/12/01 12:44:28;;;;;;;3.70;2.67;;;;;;;;;;4938113;29;20470;-77
2021/12/01 12:47:03;;;;;;;3.73;2.60;;;;;;;;;;4931925;29;20488;-78
2021/12/01 12:49:37;;;;;;;5.80;2.90;;;;;;;;;;4931877;29;20533;-77
2021/12/01 12:52:19;;;;;;;5.20;2.97;;;;;;;;;;4936225;29;21016;-76
2021/12/01 12:54:47;;;;;;;4.80;3.80;;;;;;;;;;4953704;28;20453;-75
2021/12/01 12:57:16;;;;;;;3.43;2.60;;;;;;;;;;4951723;28;20490;-76
2021/12/01 12:59:43;;;;;;;6.13;2.77;;;;;;;;;;4951248;28;20492;-80
2021/12/01 13:02:25;;;;;;;6.90;3.27;;;;;;;;;;4932807;29;20530;-77
2021/12/01 13:04:58;;;;;;;5.87;2.90;;;;;;;;;;4930014;29;20469;-79
2021/12/01 13:07:34;;;;;;;5.43;3.23;;;;;;;;;;4929989;29;20509;-81
2021/12/01 13:10:05;;;;;;;6.80;3.40;;;;;;;;;;4933711;29;20486;-77
2021/12/01 13:12:44;;;;;;;5.23;3.20;;;;;;;;;;4934625;29;20446;-78
2021/12/01 13:15:19;;;;;;;8.50;4.87;;;;;;;;;;4939079;28;20502;-80
2021/12/01 13:17:47;;;;;;;5.33;3.50;;;;;;;;;;4936430;28;20482;-78
2021/12/01 13:20:17;;;;;;;4.10;3.27;;;;;;;;;;4932399;29;20470;-80
2021/12/01 13:23:00;;;;;;;9.30;3.20;;;;;;;;;;4931560;29;20446;-82
2021/12/01 13:25:27;;;;;;;4.50;3.03;;;;;;;;;;4932833;29;20447;-75
2021/12/01 13:27:54;;;;;;;7.00;3.80;;;;;;;;;;4932741;29;20494;-76
2021/12/01 13:30:22;;;;;;;4.00;3.13;;;;;;;;;;4934192;29;20451;-79
2021/12/01 13:33:04;;;;;;;5.30;3.03;;;;;;;;;;4933320;29;20940;-78
2021/12/01 13:35:32;;;;;;;7.83;4.40;;;;;;;;;;4935467;28;20518;-79
2021/12/01 13:37:59;;;;;;;3.43;2.60;;;;;;;;;;4939752;29;20478;-78
2021/12/01 13:40:27;;;;;;;4.60;2.43;;;;;;;;;;4935580;28;20462;-79
2021/12/01 13:42:54;;;;;;;2.80;2.50;;;;;;;;;;4936767;29;20447;-76
2021/12/01 13:45:24;;;;;;;9.43;2.67;;;;;;;;;;4935724;29;20446;-74
2021/12/01 13:47:51;;;;;;;4.13;2.00;;;;;;;;;;4936394;29;20469;-77
2021/12/01 13:50:19;;;;;;;4.63;2.43;;;;;;;;;;4937249;29;20470;-78
2021/12/01 13:52:50;;;;;;;7.90;3.30;;;;;;;;;;4942887;28;20477;-78
2021/12/01 13:55:19;;;;;;;3.97;2.40;;;;;;;;;;4940062;29;20447;-78
2021/12/01 13:57:48;;;;;;;4.57;2.10;;;;;;;;;;4942818;28;20502;-79
2021/12/01 14:00:16;;;;;;;6.27;4.10;;;;;;;;;;4922811;29;20822;-78
2021/12/01 14:02:43;;;;;;;4.77;2.83;;;;;;;;;;4931208;29;20462;-76
2021/12/01 14:05:11;;;;;;;7.70;2.40;;;;;;;;;;4935418;28;20544;-76
2021/12/01 14:07:47;;;;;;;6.20;3.33;;;;;;;;;;4943402;28;20472;-76
2021/12/01 14:10:20;;;;;;;5.03;3.07;;;;;;;;;;4947133;28;20465;-75
2021/12/01 14:12:48;;;;;;;6.37;2.50;;;;;;;;;;4953369;28;20924;-75
2021/12/01 14:15:15;;;;;;;7.63;3.57;;;;;;;;;;4954217;29;20465;-77
2021/12/01 14:17:44;;;;;;;3.20;2.10;;;;;;;;;;4950052;28;20498;-75
2021/12/01 14:20:14;;;;;;;5.20;2.70;;;;;;;;;;4936201;29;20827;-76
2021/12/01 14:22:45;;;;;;;6.70;3.03;;;;;;;;;;4937471;29;20514;-75
2021/12/01 14:25:13;;;;;;;3.70;2.23;;;;;;;;;;4938098;29;20451;-76
2021/12/01 14:27:42;;;;;;;4.63;1.90;;;;;;;;;;4942839;28;20827;-75
2021/12/01 14:30:12;;;;;;;5.10;2.47;;;;;;;;;;4946391;29;20900;-74
2021/12/01 14:32:40;;;;;;;6.93;2.30;;;;;;;;;;4947857;28;20470;-75
2021/12/01 14:35:08;;;;;;;4.33;1.90;;;;;;;;;;4935416;29;20458;-74
2021/12/01 14:37:37;;;;;;;7.70;3.10;;;;;;;;;;4934804;29;20501;-76
2021/12/01 14:40:07;;;;;;;7.63;2.77;;;;;;;;;;4923328;29;20461;-75
2021/12/01 14:42:34;;;;;;;7.37;4.13;;;;;;;;;;4936343;29;20816;-75
2021/12/01 14:45:06;;;;;;;5.50;3.77;;;;;;;;;;4936083;29;20560;-72
2021/12/01 14:47:34;;;;;;;2.93;2.33;;;;;;;;;;4942485;28;20463;-74
2021/12/01 14:50:02;;;;;;;3.20;2.10;;;;;;;;;;4939092;29;20816;-74
2021/12/01 14:52:32;;;;;;;2.30;2.10;;;;;;;;;;4949614;28;20451;-75
2021/12/01 14:55:02;;;;;;;4.63;2.53;;;;;;;;;;4933089;29;20474;-78
2021/12/01 14:57:31;;;;;;;5.23;2.20;;;;;;;;;;4932344;29;20494;-75
2021/12/01 14:59:58;;;;;;;3.30;1.97;;;;;;;;;;4926953;29;20482;-75